Time;durP1;ratioP1;P1;durP2;ratioP2;P2;SDS_P1;SDS_P2;PMS_P1;PMS_P2;Temp;Humidity;BMP_temperature;BMP_pressure;BME280_temperature;BME280_humidity;BME280_pressure;Samples;Min_cycle;Max_cycle;Signal;HPM_P1;HPM_P2
2022/02/17 05:02:36;;;;;;;4.13;1.13;;;9.00;99.90;;;;;;4962807;23;20232;-68
2022/02/17 05:05:04;;;;;;;7.80;1.65;;;9.00;99.90;;;;;;4948478;28;20201;-68
2022/02/17 05:07:31;;;;;;;3.45;1.52;;;9.00;99.90;;;;;;4952781;28;20216;-69
2022/02/17 05:09:58;;;;;;;9.40;1.33;;;9.00;99.90;;;;;;4952381;28;20635;-69
2022/02/17 05:12:24;;;;;;;5.20;2.30;;;9.00;99.90;;;;;;4953106;28;20236;-69
2022/02/17 05:14:51;;;;;;;7.22;2.17;;;8.90;99.90;;;;;;4945070;28;20229;-69
2022/02/17 05:17:18;;;;;;;5.75;2.53;;;8.90;99.90;;;;;;4933971;29;20288;-68
2022/02/17 05:19:46;;;;;;;4.68;1.65;;;8.90;99.90;;;;;;4928222;29;20203;-68
2022/02/17 05:22:12;;;;;;;9.88;2.30;;;8.90;99.90;;;;;;4929026;29;20959;-68
2022/02/17 05:24:39;;;;;;;5.40;2.28;;;8.90;99.90;;;;;;4952824;28;20733;-69
2022/02/17 05:27:06;;;;;;;4.95;1.83;;;8.90;99.90;;;;;;4946859;28;20206;-68
2022/02/17 05:29:32;;;;;;;2.33;1.55;;;9.00;99.90;;;;;;4933595;29;20230;-70
2022/02/17 05:31:59;;;;;;;9.23;2.70;;;8.90;99.90;;;;;;4940070;28;20381;-70
2022/02/17 05:34:26;;;;;;;6.85;1.70;;;8.90;99.90;;;;;;4971501;23;20237;-68
2022/02/17 05:36:54;;;;;;;3.58;1.38;;;8.90;99.90;;;;;;4951177;28;20204;-67
2022/02/17 05:39:21;;;;;;;8.15;1.50;;;8.90;99.90;;;;;;4951022;28;20728;-68
2022/02/17 05:41:47;;;;;;;7.63;2.10;;;8.80;99.90;;;;;;4951531;28;20642;-68
2022/02/17 05:44:15;;;;;;;11.25;2.47;;;8.80;99.90;;;;;;4948682;28;20224;-68
2022/02/17 05:46:41;;;;;;;6.32;1.48;;;8.80;99.90;;;;;;4940474;28;20296;-68
2022/02/17 05:49:08;;;;;;;3.97;1.13;;;8.80;99.90;;;;;;4927348;29;20256;-68
2022/02/17 05:51:35;;;;;;;5.55;1.75;;;8.80;99.90;;;;;;4920189;29;20218;-68
2022/02/17 05:54:03;;;;;;;2.58;1.60;;;8.80;99.90;;;;;;4930507;29;20541;-67
2022/02/17 05:56:29;;;;;;;7.05;3.17;;;8.70;99.90;;;;;;4932557;29;20209;-67
2022/02/17 05:58:56;;;;;;;9.48;1.50;;;8.80;99.90;;;;;;4932355;29;20206;-68
2022/02/17 06:01:23;;;;;;;3.88;1.70;;;8.70;99.90;;;;;;4932584;29;20671;-68
2022/02/17 06:03:49;;;;;;;5.38;0.80;;;8.70;99.90;;;;;;4939041;28;20725;-67
2022/02/17 06:06:16;;;;;;;3.05;1.88;;;8.70;99.90;;;;;;4940759;28;20205;-67
2022/02/17 06:08:43;;;;;;;1.88;1.13;;;8.70;99.90;;;;;;4932258;29;20575;-67
2022/02/17 06:11:11;;;;;;;4.22;1.10;;;8.70;99.90;;;;;;4932257;29;20202;-68
2022/02/17 06:13:37;;;;;;;1.67;1.60;;;8.70;99.90;;;;;;4914150;29;20814;-66
2022/02/17 06:16:04;;;;;;;6.10;1.75;;;8.60;99.90;;;;;;4923419;29;20252;-67
2022/02/17 06:18:31;;;;;;;7.65;2.17;;;8.50;99.90;;;;;;4932586;29;20675;-67
2022/02/17 06:20:58;;;;;;;8.27;1.75;;;8.40;99.90;;;;;;4934628;29;20209;-67
2022/02/17 06:23:24;;;;;;;10.75;2.50;;;8.40;99.90;;;;;;4941857;28;20210;-66
2022/02/17 06:25:51;;;;;;;6.05;1.73;;;8.40;99.90;;;;;;4931907;29;20715;-67
2022/02/17 06:28:19;;;;;;;2.05;1.42;;;8.60;99.90;;;;;;4931053;29;20198;-68
2022/02/17 06:30:47;;;;;;;4.78;2.00;;;8.60;99.90;;;;;;4932603;29;20695;-67
2022/02/17 06:33:14;;;;;;;2.92;1.23;;;8.50;99.90;;;;;;4935414;28;20215;-67
2022/02/17 06:35:40;;;;;;;7.53;1.75;;;8.50;99.90;;;;;;4918810;29;20774;-68
2022/02/17 06:38:08;;;;;;;2.47;1.35;;;8.50;99.90;;;;;;4928995;29;20230;-67
2022/02/17 06:40:35;;;;;;;3.28;1.55;;;8.50;99.90;;;;;;4931998;29;20266;-68
2022/02/17 06:43:04;;;;;;;0.77;0.65;;;8.50;99.90;;;;;;4936370;29;20744;-67
2022/02/17 06:45:33;;;;;;;2.00;1.30;;;8.50;99.90;;;;;;4932694;29;21997;-68
2022/02/17 06:47:59;;;;;;;1.50;1.40;;;8.50;99.90;;;;;;4932281;29;20202;-67
2022/02/17 06:50:27;;;;;;;8.32;1.60;;;8.50;99.90;;;;;;4935783;29;20289;-67
2022/02/17 06:52:54;;;;;;;7.47;3.03;;;8.60;99.90;;;;;;4941364;29;20233;-67
2022/02/17 06:55:21;;;;;;;11.75;2.50;;;8.50;99.90;;;;;;4935337;29;20699;-68
2022/02/17 06:57:47;;;;;;;9.05;3.08;;;8.50;99.90;;;;;;4934126;29;20198;-68
2022/02/17 07:00:15;;;;;;;6.07;1.80;;;8.50;99.90;;;;;;4933773;29;20228;-69
2022/02/17 07:02:51;;;;;;;7.47;2.70;;;8.50;99.90;;;;;;4929588;29;20556;-68
2022/02/17 07:05:18;;;;;;;3.70;1.90;;;8.50;99.90;;;;;;4936054;29;20508;-68
2022/02/17 07:07:45;;;;;;;4.22;1.65;;;8.50;99.90;;;;;;4927892;29;20575;-69
2022/02/17 07:10:12;;;;;;;5.38;2.50;;;8.50;99.90;;;;;;4916268;29;20238;-69
2022/02/17 07:12:43;;;;;;;4.68;2.20;;;8.40;99.90;;;;;;4938099;29;20210;-68
2022/02/17 07:15:10;;;;;;;2.58;1.45;;;8.40;99.90;;;;;;4935735;29;20257;-67
2022/02/17 07:17:37;;;;;;;6.35;2.70;;;8.40;99.90;;;;;;4930222;29;20290;-67
2022/02/17 07:20:06;;;;;;;4.60;1.60;;;8.40;99.90;;;;;;4916267;29;20731;-68
2022/02/17 07:22:32;;;;;;;5.25;1.50;;;8.40;99.90;;;;;;4936747;29;20627;-68
2022/02/17 07:24:59;;;;;;;9.05;1.67;;;8.40;99.90;;;;;;4932074;29;20594;-67
2022/02/17 07:27:26;;;;;;;3.13;1.67;;;8.40;99.90;;;;;;4933523;29;20198;-68
2022/02/17 07:29:53;;;;;;;7.43;2.40;;;8.30;99.90;;;;;;4935575;29;20226;-68
2022/02/17 07:32:20;;;;;;;6.47;2.30;;;8.30;99.90;;;;;;4941435;29;20214;-67
2022/02/17 07:34:46;;;;;;;3.22;1.88;;;8.20;99.90;;;;;;4934205;29;20238;-68
2022/02/17 07:37:16;;;;;;;2.95;1.00;;;8.30;99.90;;;;;;4931282;29;20277;-68
2022/02/17 07:39:47;;;;;;;3.55;1.20;;;8.40;99.90;;;;;;4932241;29;20281;-67
2022/02/17 07:42:16;;;;;;;8.18;2.15;;;8.40;99.90;;;;;;4934393;29;20774;-68
2022/02/17 07:44:44;;;;;;;6.82;3.20;;;8.40;99.90;;;;;;4933467;29;20543;-68
2022/02/17 07:47:21;;;;;;;3.97;2.05;;;8.30;99.90;;;;;;4920273;29;20203;-69
2022/02/17 07:49:54;;;;;;;4.85;1.27;;;8.30;99.90;;;;;;4915795;29;20236;-68
2022/02/17 07:52:34;;;;;;;4.32;2.30;;;8.30;99.90;;;;;;4924974;29;20792;-68
2022/02/17 07:55:18;;;;;;;2.03;1.70;;;8.30;99.90;;;;;;4934155;29;20701;-68
2022/02/17 07:57:53;;;;;;;8.60;2.50;;;8.20;99.90;;;;;;4931816;29;20217;-68
2022/02/17 08:00:39;;;;;;;5.32;2.38;;;8.20;99.90;;;;;;4932630;29;20185;-69
2022/02/17 08:03:29;;;;;;;6.47;1.70;;;8.20;99.90;;;;;;4933233;29;20202;-69
2022/02/17 08:05:59;;;;;;;16.33;6.30;;;8.20;99.90;;;;;;4931658;29;20214;-68
2022/02/17 08:08:48;;;;;;;4.63;1.23;;;8.20;99.90;;;;;;4933333;29;20206;-68
2022/02/17 08:14:33;;;;;;;6.28;2.28;;;8.20;99.90;;;;;;4930039;29;20244;-68
2022/02/17 08:17:31;;;;;;;2.42;2.22;;;8.20;99.90;;;;;;4933585;29;20289;-68
2022/02/17 08:20:19;;;;;;;;;;;;;;;;;;;;;
2022/02/17 08:23:08;;;;;;;6.53;4.28;;;8.20;99.90;;;;;;4933207;29;20257;-68
2022/02/17 08:25:45;;;;;;;4.60;2.28;;;8.30;99.90;;;;;;4925376;29;20718;-69
2022/02/17 08:28:30;;;;;;;2.72;1.25;;;8.30;99.90;;;;;;4934157;29;20288;-69
2022/02/17 08:31:03;;;;;;;5.85;1.73;;;8.30;99.90;;;;;;4934241;29;20230;-68
2022/02/17 08:34:03;;;;;;;3.00;1.30;;;8.20;99.90;;;;;;4927204;29;20297;-68
2022/02/17 08:36:32;;;;;;;6.57;1.95;;;8.10;99.90;;;;;;4915199;29;20301;-68
2022/02/17 08:39:13;;;;;;;;;;;;;;;;;;;;;
2022/02/17 08:42:04;;;;;;;3.78;1.55;;;8.00;99.90;;;;;;4927588;29;20194;-67
2022/02/17 08:44:33;;;;;;;5.68;1.95;;;8.00;99.90;;;;;;4946424;28;20228;-67
2022/02/17 08:47:01;;;;;;;7.20;1.67;;;8.00;99.90;;;;;;4952814;28;20611;-67
2022/02/17 08:49:32;;;;;;;8.02;1.50;;;7.90;99.90;;;;;;4942681;28;20564;-68
2022/02/17 08:52:06;;;;;;;4.75;1.73;;;7.90;99.90;;;;;;4939971;29;20213;-67
2022/02/17 08:54:37;;;;;;;3.92;1.50;;;7.80;99.90;;;;;;4925135;29;20234;-67
2022/02/17 08:57:11;;;;;;;8.90;1.65;;;7.80;99.90;;;;;;4933956;29;20570;-68
2022/02/17 08:59:38;;;;;;;2.63;1.42;;;7.80;99.90;;;;;;4932845;29;20760;-67
2022/02/17 09:02:18;;;;;;;8.70;2.22;;;7.80;99.90;;;;;;4942833;29;20633;-68
2022/02/17 09:04:54;;;;;;;4.40;1.60;;;7.80;99.90;;;;;;4929252;28;20229;-69
2022/02/17 09:07:24;;;;;;;6.07;1.33;;;7.70;99.90;;;;;;4931031;29;20674;-68
2022/02/17 09:09:55;;;;;;;2.38;2.17;;;7.70;99.90;;;;;;4931372;29;20594;-67
2022/02/17 09:12:28;;;;;;;4.03;1.80;;;7.70;99.90;;;;;;4933113;29;20202;-67
2022/02/17 09:15:15;;;;;;;3.00;1.30;;;7.60;99.90;;;;;;4931615;29;20317;-68
2022/02/17 09:18:01;;;;;;;5.18;2.63;;;7.40;99.90;;;;;;4931817;29;20246;-68
2022/02/17 09:20:36;;;;;;;9.90;1.65;;;7.40;99.90;;;;;;4918492;29;20209;-67
2022/02/17 09:23:08;;;;;;;2.35;1.40;;;7.30;99.90;;;;;;4930018;29;20233;-67
2022/02/17 09:25:48;;;;;;;5.22;1.85;;;7.40;99.90;;;;;;4929841;29;20226;-69
2022/02/17 09:28:24;;;;;;;3.95;1.40;;;7.40;99.90;;;;;;4929302;29;20621;-68
2022/02/17 09:31:05;;;;;;;9.20;3.05;;;7.50;99.90;;;;;;4930001;29;20609;-68
2022/02/17 09:33:41;;;;;;;6.35;2.53;;;7.60;99.90;;;;;;4927798;29;20213;-68
2022/02/17 09:36:12;;;;;;;2.85;2.28;;;7.60;99.90;;;;;;4925282;29;20204;-68
2022/02/17 09:39:00;;;;;;;6.45;1.67;;;7.70;99.90;;;;;;4931852;29;20205;-68
2022/02/17 09:41:41;;;;;;;11.23;2.65;;;7.70;99.90;;;;;;4932080;29;20270;-68
2022/02/17 09:44:34;;;;;;;4.90;2.45;;;7.70;99.90;;;;;;4931589;29;20714;-68
2022/02/17 09:47:04;;;;;;;2.15;1.23;;;7.60;99.90;;;;;;4926913;29;20202;-68
2022/02/17 09:49:31;;;;;;;5.15;2.05;;;7.60;99.90;;;;;;4930710;29;20734;-66
2022/02/17 09:51:58;;;;;;;4.93;1.30;;;7.60;99.90;;;;;;4937287;29;20355;-66
2022/02/17 09:54:25;;;;;;;4.55;1.00;;;7.60;99.90;;;;;;4928378;29;20252;-67
2022/02/17 09:56:51;;;;;;;8.02;1.20;;;7.50;99.90;;;;;;4927854;29;20202;-67
2022/02/17 09:59:20;;;;;;;5.18;1.50;;;7.50;99.90;;;;;;4927638;29;20671;-66
2022/02/17 10:01:56;;;;;;;2.15;1.02;;;7.40;99.90;;;;;;4919706;29;20209;-66
2022/02/17 10:04:24;;;;;;;5.53;1.10;;;7.40;99.90;;;;;;4919618;29;20226;-66
2022/02/17 10:06:52;;;;;;;2.60;1.00;;;7.30;99.90;;;;;;4924076;29;20206;-67
2022/02/17 10:09:20;;;;;;;2.35;1.25;;;7.30;99.90;;;;;;4923536;29;20686;-67
2022/02/17 10:11:48;;;;;;;1.40;0.85;;;7.30;99.90;;;;;;4932263;29;20221;-67
2022/02/17 10:14:17;;;;;;;2.45;1.30;;;7.30;99.90;;;;;;4927980;29;20226;-67
2022/02/17 10:16:57;;;;;;;6.13;1.02;;;7.30;99.90;;;;;;4927948;29;20261;-67
2022/02/17 10:19:25;;;;;;;1.92;1.70;;;7.30;99.90;;;;;;4929732;29;20222;-67
2022/02/17 10:22:01;;;;;;;4.35;1.00;;;7.30;99.90;;;;;;4930434;29;20202;-66
2022/02/17 10:24:32;;;;;;;0.93;0.68;;;7.30;99.90;;;;;;4933703;29;20282;-66
2022/02/17 10:27:04;;;;;;;6.15;1.58;;;7.30;99.90;;;;;;4930759;29;20300;-67
2022/02/17 10:29:31;;;;;;;4.70;1.00;;;7.30;99.90;;;;;;4936150;29;20209;-67
2022/02/17 10:32:12;;;;;;;2.42;1.30;;;7.30;99.90;;;;;;4932677;29;20273;-67
2022/02/17 10:34:39;;;;;;;5.03;1.13;;;7.30;99.90;;;;;;4935768;29;20245;-67
2022/02/17 10:37:07;;;;;;;2.15;0.82;;;7.30;99.90;;;;;;4932230;29;20651;-67
2022/02/17 10:39:37;;;;;;;5.55;1.60;;;7.30;99.90;;;;;;4927192;29;20217;-67
2022/02/17 10:42:06;;;;;;;3.05;1.13;;;7.40;99.90;;;;;;4932576;29;20578;-67
2022/02/17 10:44:34;;;;;;;1.10;1.00;;;7.40;99.90;;;;;;4934265;29;20667;-67
2022/02/17 10:47:13;;;;;;;3.42;1.13;;;7.40;99.90;;;;;;4934754;29;20217;-67
2022/02/17 10:49:45;;;;;;;4.35;2.67;;;7.50;99.90;;;;;;4931279;29;20213;-66
2022/02/17 10:52:13;;;;;;;2.97;1.90;;;7.50;99.90;;;;;;4935396;29;20683;-67
2022/02/17 10:54:41;;;;;;;2.90;1.55;;;7.50;99.90;;;;;;4934517;29;20325;-67
2022/02/17 10:57:07;;;;;;;2.40;1.10;;;7.50;99.90;;;;;;4934857;29;20305;-66
2022/02/17 11:02:25;;;;;;;2.45;0.82;;;7.40;99.90;;;;;;4931520;29;20209;-67
2022/02/17 11:04:52;;;;;;;0.95;0.95;;;7.30;99.90;;;;;;4934749;29;20233;-67
2022/02/17 11:07:19;;;;;;;3.15;0.85;;;7.20;99.90;;;;;;4935243;29;20310;-66
2022/02/17 11:09:46;;;;;;;9.27;1.42;;;7.00;99.90;;;;;;4932596;29;20232;-66
2022/02/17 11:12:14;;;;;;;4.60;1.80;;;6.90;99.90;;;;;;4933617;29;20589;-66
2022/02/17 11:14:42;;;;;;;2.97;0.93;;;6.90;99.90;;;;;;4928827;29;20765;-66
2022/02/17 11:17:11;;;;;;;3.63;0.90;;;6.80;99.90;;;;;;4930721;29;20274;-67
2022/02/17 11:19:41;;;;;;;1.58;1.10;;;6.60;99.90;;;;;;4933726;29;20269;-67
2022/02/17 11:22:07;;;;;;;1.55;0.82;;;6.40;99.90;;;;;;4934305;29;20210;-67
2022/02/17 11:24:47;;;;;;;2.53;0.70;;;6.30;99.90;;;;;;4933340;29;20229;-67
2022/02/17 11:27:15;;;;;;;2.05;1.13;;;6.40;99.90;;;;;;4934931;29;20212;-67
2022/02/17 11:29:42;;;;;;;3.92;0.80;;;6.10;99.90;;;;;;4928261;29;20213;-66
2022/02/17 11:32:14;;;;;;;0.75;0.30;;;5.80;99.90;;;;;;4932476;29;20230;-67
2022/02/17 11:34:44;;;;;;;0.50;0.45;;;5.40;99.90;;;;;;4932587;29;20669;-66
2022/02/17 11:37:48;;;;;;;1.83;0.50;;;5.20;99.90;;;;;;4933026;29;20202;-68
2022/02/17 11:40:18;;;;;;;0.55;0.55;;;5.20;99.90;;;;;;4932153;29;20212;-68
2022/02/17 11:42:46;;;;;;;0.90;0.60;;;5.30;99.90;;;;;;4939198;28;20210;-69
2022/02/17 11:45:16;;;;;;;0.85;0.65;;;5.40;99.90;;;;;;4940683;29;20280;-67
2022/02/17 11:48:02;;;;;;;2.20;0.50;;;5.50;99.90;;;;;;4928636;29;20329;-68
2022/02/17 11:50:32;;;;;;;0.60;0.60;;;5.60;99.90;;;;;;4925025;29;20746;-66
2022/02/17 11:53:25;;;;;;;5.07;1.35;;;5.70;99.90;;;;;;4930754;29;20632;-68
2022/02/17 11:55:53;;;;;;;2.15;0.65;;;5.90;99.90;;;;;;4927128;29;20241;-65
2022/02/17 11:58:47;;;;;;;2.10;0.70;;;6.00;99.90;;;;;;4933564;29;20282;-66
2022/02/17 12:01:39;;;;;;;1.95;1.02;;;6.10;99.90;;;;;;4928417;29;20210;-67
2022/02/17 12:04:09;;;;;;;1.65;1.30;;;6.10;99.90;;;;;;4928579;29;20288;-66
2022/02/17 12:06:41;;;;;;;2.45;1.60;;;6.10;99.90;;;;;;4937551;29;20206;-67
2022/02/17 12:09:09;;;;;;;6.38;2.30;;;6.10;99.90;;;;;;4930942;29;20210;-67
2022/02/17 12:11:37;;;;;;;2.55;2.13;;;6.20;99.90;;;;;;4933291;29;20261;-66
2022/02/17 12:14:07;;;;;;;7.07;2.20;;;6.20;99.90;;;;;;4937962;29;20226;-66
2022/02/17 12:16:39;;;;;;;8.82;2.78;;;6.20;99.90;;;;;;4934547;29;20229;-67
2022/02/17 12:19:09;;;;;;;3.20;1.73;;;6.20;99.90;;;;;;4932543;29;20231;-67
2022/02/17 12:21:40;;;;;;;2.00;0.80;;;6.20;99.90;;;;;;4933411;29;20202;-67
2022/02/17 12:24:07;;;;;;;3.35;0.95;;;6.00;99.90;;;;;;4921440;29;20230;-66
2022/02/17 12:26:41;;;;;;;1.75;0.60;;;5.60;99.90;;;;;;4933326;29;20214;-67
2022/02/17 12:29:26;;;;;;;4.65;1.08;;;5.30;99.90;;;;;;4931963;29;20214;-68
2022/02/17 12:31:53;;;;;;;1.05;0.95;;;5.20;99.90;;;;;;4923927;29;20233;-67
2022/02/17 12:34:20;;;;;;;3.70;1.10;;;5.30;99.90;;;;;;4943178;28;20237;-68
2022/02/17 12:36:48;;;;;;;2.08;1.30;;;5.50;99.90;;;;;;4930980;29;20237;-66
2022/02/17 12:39:15;;;;;;;4.65;1.90;;;5.70;99.90;;;;;;4928528;29;20217;-66
2022/02/17 12:41:56;;;;;;;9.85;2.35;;;6.00;99.90;;;;;;4928705;29;20203;-67
2022/02/17 12:44:27;;;;;;;13.18;2.10;;;6.30;99.90;;;;;;4930692;29;20237;-66
2022/02/17 12:46:54;;;;;;;6.30;2.30;;;6.50;99.90;;;;;;4937783;28;20634;-66
2022/02/17 12:49:20;;;;;;;3.65;1.13;;;6.70;99.90;;;;;;4930209;29;20272;-67
2022/02/17 12:51:48;;;;;;;3.70;1.80;;;6.80;99.90;;;;;;4932304;29;20230;-67
2022/02/17 12:54:15;;;;;;;6.18;1.52;;;6.90;99.90;;;;;;4933061;29;20234;-66
2022/02/17 12:56:43;;;;;;;11.85;2.15;;;7.00;99.90;;;;;;4933899;29;20205;-67
2022/02/17 12:59:12;;;;;;;4.45;1.95;;;7.00;99.90;;;;;;4952840;28;20219;-67
2022/02/17 13:01:41;;;;;;;2.70;1.67;;;7.20;99.90;;;;;;4932993;28;20631;-67
2022/02/17 13:04:08;;;;;;;9.68;1.80;;;7.30;99.90;;;;;;4930769;29;20340;-65
2022/02/17 13:06:35;;;;;;;13.98;5.30;;;7.50;99.90;;;;;;4932872;29;20285;-67
2022/02/17 13:09:14;;;;;;;9.43;1.40;;;7.60;99.90;;;;;;4932753;29;20276;-67
2022/02/17 13:11:45;;;;;;;1.75;1.65;;;7.50;99.90;;;;;;4931719;29;20673;-67
2022/02/17 13:14:12;;;;;;;7.13;2.20;;;7.60;99.90;;;;;;4938806;28;20470;-67
2022/02/17 13:16:44;;;;;;;5.32;2.00;;;7.50;99.90;;;;;;4940697;28;20214;-66
2022/02/17 13:19:34;;;;;;;6.43;1.90;;;7.60;99.90;;;;;;4933480;29;20202;-67
2022/02/17 13:22:01;;;;;;;6.03;2.22;;;7.50;99.90;;;;;;4933626;29;20198;-67
2022/02/17 13:24:29;;;;;;;7.90;2.05;;;7.40;99.90;;;;;;4933129;29;20230;-66
2022/02/17 13:27:07;;;;;;;4.43;1.42;;;7.40;99.90;;;;;;4933388;29;20594;-66
2022/02/17 13:29:34;;;;;;;6.28;1.70;;;7.30;99.90;;;;;;4932801;29;20561;-66
2022/02/17 13:32:12;;;;;;;11.32;2.17;;;7.10;99.90;;;;;;4930740;29;20229;-67
2022/02/17 13:34:39;;;;;;;7.93;1.98;;;7.10;99.90;;;;;;4942429;28;20757;-67
2022/02/17 13:37:07;;;;;;;7.10;1.75;;;7.10;99.90;;;;;;4952090;28;20232;-67
2022/02/17 13:39:35;;;;;;;8.18;2.38;;;7.10;99.90;;;;;;4939980;28;20245;-67
2022/02/17 13:42:07;;;;;;;2.90;1.17;;;6.90;99.90;;;;;;4933048;29;20249;-67
2022/02/17 13:44:35;;;;;;;2.90;1.30;;;6.80;99.90;;;;;;4933175;29;20363;-68
2022/02/17 13:47:03;;;;;;;5.15;1.25;;;6.80;99.90;;;;;;4933211;29;20305;-68
2022/02/17 13:49:29;;;;;;;3.08;1.85;;;6.60;99.90;;;;;;4933002;29;20234;-66
2022/02/17 13:51:56;;;;;;;1.88;1.60;;;6.50;99.90;;;;;;4932352;29;20317;-67
2022/02/17 13:54:23;;;;;;;0.75;0.30;;;6.30;99.90;;;;;;4941100;28;20336;-66
2022/02/17 13:56:51;;;;;;;1.63;0.70;;;6.10;99.90;;;;;;4939636;28;20213;-67
2022/02/17 13:59:25;;;;;;;1.70;0.70;;;5.90;99.90;;;;;;4936440;29;20205;-67
2022/02/17 14:01:51;;;;;;;1.08;0.68;;;5.80;99.90;;;;;;4936671;29;20213;-67
2022/02/17 14:04:28;;;;;;;2.85;0.90;;;5.70;99.90;;;;;;4935631;29;20229;-68
2022/02/17 14:06:55;;;;;;;5.20;1.80;;;5.70;99.90;;;;;;4924976;29;20209;-66
2022/02/17 14:09:22;;;;;;;1.65;1.55;;;5.80;99.90;;;;;;4927562;29;20277;-67
2022/02/17 14:11:50;;;;;;;4.47;1.15;;;5.70;99.90;;;;;;4935123;29;20227;-66
2022/02/17 14:14:17;;;;;;;2.35;1.40;;;5.70;99.90;;;;;;4934397;29;20234;-66
2022/02/17 14:16:44;;;;;;;3.35;1.02;;;5.70;99.90;;;;;;4941663;28;20248;-66
2022/02/17 14:19:11;;;;;;;3.33;0.65;;;5.70;99.90;;;;;;4938217;28;20209;-67
2022/02/17 14:21:38;;;;;;;10.82;1.90;;;5.80;99.90;;;;;;4933489;29;20202;-66
2022/02/17 14:24:06;;;;;;;2.03;1.20;;;5.80;99.90;;;;;;4937632;29;20309;-66
2022/02/17 14:26:33;;;;;;;5.07;1.70;;;5.90;99.90;;;;;;4935612;29;20302;-67
2022/02/17 14:29:01;;;;;;;7.15;1.88;;;5.90;99.90;;;;;;4932006;29;20209;-67
2022/02/17 14:31:28;;;;;;;1.70;1.20;;;6.00;99.90;;;;;;4928646;29;20230;-67
2022/02/17 14:33:55;;;;;;;16.45;3.30;;;6.10;99.90;;;;;;4934836;29;20702;-67
2022/02/17 14:36:21;;;;;;;13.73;3.45;;;6.20;99.90;;;;;;4934035;29;20297;-67
2022/02/17 14:38:48;;;;;;;6.75;2.22;;;6.30;99.90;;;;;;4931449;29;20210;-67
2022/02/17 14:41:15;;;;;;;2.95;2.47;;;6.40;99.90;;;;;;4929722;29;20217;-66
2022/02/17 14:43:42;;;;;;;5.45;4.28;;;6.50;99.90;;;;;;4932563;29;20210;-67
2022/02/17 14:46:10;;;;;;;6.28;1.83;;;6.60;99.90;;;;;;4939946;29;20205;-66
2022/02/17 14:48:36;;;;;;;2.30;1.77;;;6.60;99.90;;;;;;4931898;28;20323;-65
2022/02/17 14:51:04;;;;;;;8.63;3.00;;;6.60;99.90;;;;;;4937224;29;20365;-66
2022/02/17 14:53:31;;;;;;;12.60;2.45;;;6.60;99.90;;;;;;4935204;28;20706;-66
2022/02/17 14:56:00;;;;;;;3.45;3.08;;;6.70;99.90;;;;;;4934576;29;20226;-69
2022/02/17 14:58:27;;;;;;;8.90;2.75;;;6.70;99.90;;;;;;4934321;29;20710;-65
2022/02/17 15:00:56;;;;;;;11.77;2.60;;;6.80;99.90;;;;;;4931869;29;20206;-67
2022/02/17 15:03:24;;;;;;;3.25;1.55;;;6.80;99.90;;;;;;4930352;29;20265;-66
2022/02/17 15:05:52;;;;;;;11.43;2.13;;;6.90;99.90;;;;;;4925937;29;20763;-66
2022/02/17 15:08:18;;;;;;;3.70;1.88;;;6.80;99.90;;;;;;4933661;29;20594;-67
2022/02/17 15:10:45;;;;;;;7.22;2.92;;;6.80;99.90;;;;;;4932039;28;20231;-66
2022/02/17 15:13:11;;;;;;;2.30;2.20;;;6.70;99.90;;;;;;4927135;29;20265;-66
2022/02/17 15:15:38;;;;;;;13.55;2.20;;;6.70;99.90;;;;;;4932404;29;20710;-67
2022/02/17 15:18:05;;;;;;;8.85;3.90;;;6.70;99.90;;;;;;4937921;29;20205;-67
2022/02/17 15:20:34;;;;;;;8.00;1.60;;;6.70;99.90;;;;;;4933073;29;20634;-67
2022/02/17 15:23:02;;;;;;;4.35;2.38;;;6.60;99.90;;;;;;4933457;29;20202;-67
2022/02/17 15:25:29;;;;;;;6.07;2.72;;;6.70;99.90;;;;;;4934881;29;20230;-67
2022/02/17 15:27:57;;;;;;;6.68;1.83;;;6.70;99.90;;;;;;4934334;29;20210;-67
2022/02/17 15:30:25;;;;;;;5.57;1.45;;;6.70;99.90;;;;;;4932593;29;20932;-67
2022/02/17 15:32:53;;;;;;;8.93;1.60;;;6.70;99.90;;;;;;4930958;29;20699;-66
2022/02/17 15:35:20;;;;;;;3.55;1.00;;;6.70;99.90;;;;;;4936739;29;20372;-66
2022/02/17 15:37:49;;;;;;;6.03;2.63;;;6.70;99.90;;;;;;4939488;28;20217;-66
2022/02/17 15:40:16;;;;;;;9.75;2.10;;;6.60;99.90;;;;;;4929486;29;20313;-65
2022/02/17 15:42:43;;;;;;;6.63;1.42;;;6.60;99.90;;;;;;4932574;29;20269;-68
2022/02/17 15:45:10;;;;;;;1.38;1.30;;;6.50;99.90;;;;;;4930082;29;20226;-67
2022/02/17 15:47:37;;;;;;;5.32;2.03;;;6.50;99.90;;;;;;4933031;29;20606;-67
2022/02/17 15:50:04;;;;;;;6.15;2.25;;;6.40;99.90;;;;;;4933435;29;20789;-68
2022/02/17 15:52:31;;;;;;;5.35;1.38;;;6.40;99.90;;;;;;4918237;29;20301;-68
2022/02/17 15:54:59;;;;;;;2.05;1.20;;;6.30;99.90;;;;;;4933824;29;20723;-68
2022/02/17 15:57:26;;;;;;;4.35;1.75;;;6.20;99.90;;;;;;4934696;29;20222;-67
2022/02/17 15:59:53;;;;;;;2.83;2.20;;;6.20;99.90;;;;;;4932592;29;20217;-67
2022/02/17 16:02:20;;;;;;;7.35;2.88;;;6.10;99.90;;;;;;4933583;29;20204;-67
2022/02/17 16:04:47;;;;;;;1.38;1.25;;;6.20;99.90;;;;;;4926237;29;20230;-66
2022/02/17 16:07:13;;;;;;;4.07;1.92;;;6.10;99.90;;;;;;4923002;29;20628;-69
2022/02/17 16:09:40;;;;;;;8.02;3.20;;;6.10;99.90;;;;;;4923203;29;20214;-67
2022/02/17 16:12:09;;;;;;;4.20;2.33;;;6.10;99.90;;;;;;4926734;29;20778;-67
2022/02/17 16:14:36;;;;;;;3.83;1.35;;;6.20;99.90;;;;;;4924737;29;20237;-67
2022/02/17 16:17:03;;;;;;;9.65;2.50;;;6.20;99.90;;;;;;4924178;29;20261;-67
2022/02/17 16:19:29;;;;;;;3.80;1.30;;;6.20;99.90;;;;;;4926502;29;20245;-67
2022/02/17 16:21:56;;;;;;;7.53;1.55;;;6.30;99.90;;;;;;4927247;28;20214;-67
2022/02/17 16:24:23;;;;;;;9.80;3.72;;;6.30;99.90;;;;;;4930945;29;20230;-67
2022/02/17 16:26:50;;;;;;;5.75;1.80;;;6.40;99.90;;;;;;4930671;29;20257;-68
2022/02/17 16:29:18;;;;;;;2.63;1.33;;;6.40;99.90;;;;;;4925375;29;20210;-67
2022/02/17 16:31:45;;;;;;;4.05;1.45;;;6.40;99.90;;;;;;4923629;29;20206;-66
2022/02/17 16:34:12;;;;;;;4.85;2.10;;;6.40;99.90;;;;;;4925322;29;20230;-68
2022/02/17 16:36:39;;;;;;;10.95;2.42;;;6.40;99.90;;;;;;4925658;29;20205;-68
2022/02/17 16:39:12;;;;;;;6.38;2.13;;;6.40;99.90;;;;;;4924769;29;20220;-68
2022/02/17 16:41:41;;;;;;;8.57;2.50;;;6.40;99.90;;;;;;4923680;29;20319;-68
2022/02/17 16:44:08;;;;;;;5.82;1.67;;;6.40;99.90;;;;;;4922449;29;20269;-66
2022/02/17 16:46:37;;;;;;;2.47;2.28;;;6.50;99.90;;;;;;4923560;29;20257;-68
2022/02/17 16:49:05;;;;;;;4.72;1.88;;;6.50;99.90;;;;;;4925545;29;20292;-67
2022/02/17 16:51:32;;;;;;;5.72;2.08;;;6.40;99.90;;;;;;4924623;29;20726;-68
2022/02/17 16:53:59;;;;;;;4.70;2.03;;;6.40;99.90;;;;;;4923212;29;20229;-66
2022/02/17 16:56:25;;;;;;;4.70;1.40;;;6.40;99.90;;;;;;4925024;29;20213;-67
2022/02/17 16:58:52;;;;;;;4.70;2.10;;;6.30;99.90;;;;;;4923860;29;20332;-66
2022/02/17 17:01:19;;;;;;;5.65;2.40;;;6.30;99.90;;;;;;4927175;29;20205;-66
2022/02/17 17:03:47;;;;;;;5.82;2.35;;;6.30;99.90;;;;;;4933963;29;20617;-68
2022/02/17 17:06:14;;;;;;;6.95;3.20;;;6.30;99.90;;;;;;4933253;29;20210;-66
2022/02/17 17:08:41;;;;;;;6.50;1.90;;;6.20;99.90;;;;;;4932973;29;20210;-68
2022/02/17 17:11:08;;;;;;;6.50;2.00;;;6.20;99.90;;;;;;4925858;29;20337;-67
2022/02/17 17:13:36;;;;;;;9.43;1.90;;;6.20;99.90;;;;;;4926030;29;20226;-66
2022/02/17 17:16:03;;;;;;;6.82;1.92;;;6.20;99.90;;;;;;4924579;29;20300;-67
2022/02/17 17:18:32;;;;;;;2.88;2.10;;;6.20;99.90;;;;;;4924493;29;20212;-67
2022/02/17 17:21:01;;;;;;;6.22;3.17;;;6.20;99.90;;;;;;4923085;29;20202;-67
2022/02/17 17:23:27;;;;;;;5.55;2.00;;;6.30;99.90;;;;;;4924650;29;20214;-68
2022/02/17 17:25:54;;;;;;;5.10;2.50;;;6.30;99.90;;;;;;4925625;29;20289;-67
2022/02/17 17:28:23;;;;;;;11.27;3.47;;;6.40;99.90;;;;;;4923759;29;22100;-67
2022/02/17 17:30:50;;;;;;;7.78;2.20;;;6.40;99.90;;;;;;4922522;29;20659;-68
2022/02/17 17:33:17;;;;;;;7.78;3.00;;;6.40;99.90;;;;;;4922995;29;20956;-71
2022/02/17 17:35:45;;;;;;;6.15;1.80;;;6.40;99.90;;;;;;4921206;29;20237;-69
2022/02/17 17:38:13;;;;;;;4.82;1.70;;;6.40;99.90;;;;;;4925076;29;21718;-67
2022/02/17 17:40:40;;;;;;;4.88;2.10;;;6.40;99.90;;;;;;4925317;29;20218;-67
2022/02/17 17:43:06;;;;;;;10.57;2.55;;;6.40;99.90;;;;;;4921972;29;20206;-67
2022/02/17 17:45:38;;;;;;;4.22;2.08;;;6.50;99.90;;;;;;4924774;29;20229;-67
2022/02/17 17:48:06;;;;;;;6.43;2.10;;;6.50;99.90;;;;;;4928944;29;20210;-67
2022/02/17 17:50:35;;;;;;;7.25;2.53;;;6.50;99.90;;;;;;4926415;29;20253;-65
2022/02/17 17:53:03;;;;;;;5.85;2.78;;;6.50;99.90;;;;;;4921974;29;20226;-67
2022/02/17 17:55:33;;;;;;;7.03;2.40;;;6.60;99.90;;;;;;4924153;29;20250;-67
2022/02/17 17:58:00;;;;;;;9.25;3.08;;;6.60;99.90;;;;;;4926914;29;20301;-68
2022/02/17 18:00:27;;;;;;;3.72;1.40;;;6.60;99.90;;;;;;4932716;29;20226;-67
2022/02/17 18:02:54;;;;;;;2.80;1.95;;;6.60;99.90;;;;;;4928260;29;20218;-66
2022/02/17 18:05:20;;;;;;;2.47;1.33;;;6.60;99.90;;;;;;4920679;29;20293;-68
2022/02/17 18:07:47;;;;;;;4.63;2.55;;;6.60;99.90;;;;;;4929477;29;20210;-66
2022/02/17 18:10:14;;;;;;;5.07;2.00;;;6.50;99.90;;;;;;4928531;29;20351;-66
2022/02/17 18:12:42;;;;;;;9.32;2.13;;;6.50;99.90;;;;;;4926732;29;20210;-67
2022/02/17 18:15:10;;;;;;;9.82;3.60;;;6.40;99.90;;;;;;4929295;29;20608;-69
2022/02/17 18:17:37;;;;;;;5.82;2.35;;;6.40;99.90;;;;;;4918400;29;20210;-68
2022/02/17 18:20:05;;;;;;;5.43;2.20;;;6.30;99.90;;;;;;4929032;29;20213;-65